Hyde Park, Utah
Current Conditions -  °F | °C
As of 1:51 AM on Friday 19 Dec 2014 (Local Time) from KLGU Reporting Station
Overcast Overcast  
Wind Chill: 28°   Ceiling: 4600
Heat Index: 28°   Visibility: 10mi
Dew Point: 24°   Wind: 3mph
Humidity: 85%   Direction: 50°NE
Pressure: 30.18"   Gusts: NA
Location:  41.8°N, 111.82°W
Report Text: KLGU 190851Z AUTO 05003KT 10SM BKN046 OVC065 M02/M04 A3018 RMK AO2 SLP228 T10221044 55004
Loading
Personal Weather Stations






























Interactive Weather Map New forecast layout! Learn more

10-Day Weather Forecast

Advertisements
Track Severe Weather on mobile